Airfield :
LOGIN :

Register | Disclaimer

   EN    FR    IT 

 










Legend :    VFR   Marginal VFR   IFR   Intensive IFR   Very Intensive IFR
Visi :
Ceiling :
>= 8 km
>= 3000ft
5 to 8 km
1000 to 3000 ft
1500m to 5 km
500 to 1000 ft
800 to 1500m
200 to 500 ft
< 800m
< 200 ft
Symbols :   Thunderstorms  Fog  Heavy snow  Heavy precipitations  Wind > 20 kt
SIGMETs :     Misc.  Thunderstorms  Icing  Turbulence  Mountain Waves  Volcanic Ashes







- Airport Elevation : -15 ft
- IATA code : RTM


EHRD - Rotterdam Zestienhoven

CURRENT METAR :
  • 211025Z AUTO 24005KT 9999 NSC 04/02 Q1015 NOSIG

EXPIRED METARs :
  • 210955Z AUTO 25003KT 9999 NSC 03/01 Q1015 NOSIG
  • 210925Z AUTO 27004KT 9999 NSC 02/00 Q1015 NOSIG
  • 210855Z AUTO 24003KT 9999 NSC 02/M00 Q1014 NOSIG
  • 210825Z AUTO 27006KT 9999 NSC 02/M00 Q1014 NOSIG
  • 210755Z AUTO 28005KT 9999 NSC 01/M01 Q1014 NOSIG

TAF TAF EHRD
Valid from the 21 at 06:00 until the 22 at 12:00 UTC


210446Z 2106/2212 31006KT 9999 FEW025
BECMG 2110/2113 23005KT
BECMG 2118/2121 15013KT 6000 RA BKN006
PROB40 2120/2123 2500 RASN BKN004
BECMG 2122/2201 18008KT 4000 -RADZ BR BKN004
PROB30 2201/2206 2000 -DZ BKN003
BECMG 2204/2207 29012KT 7000 NSW BKN018
BECMG 2207/2210 9999 FEW018 SCT035
No reported NOTAMs for that airfield.



MET'MAP, your aeronautical weather chart ! - Copyright ORBIFLY December 2007 - Disclaimer

ORBIFLY MET'MAP TEAM :

Programming & Development : Alexandra Zaïnal
Concept & Development : Baudouin d'Aumeries
Co-Development & Prog : Marc-Olivier Méhu
Technical & hardware support : Manuel Goepfert

Contact : metmap@orbifly.com




SOURCES & CREDITS :

   NOAA